sensor_id;sensor_type;location;lat;lon;timestamp;P1;durP1;ratioP1;P2;durP2;ratioP2
1829;SDS011;914;48.118;11.600;2023-07-08T00:00:22;8.00;;;6.32;;
1829;SDS011;914;48.118;11.600;2023-07-08T00:02:48;6.20;;;5.50;;
1829;SDS011;914;48.118;11.600;2023-07-08T00:05:15;8.35;;;6.25;;
1829;SDS011;914;48.118;11.600;2023-07-08T00:07:42;6.80;;;5.70;;
1829;SDS011;914;48.118;11.600;2023-07-08T00:10:12;6.28;;;5.68;;
1829;SDS011;914;48.118;11.600;2023-07-08T00:12:44;8.35;;;5.78;;
1829;SDS011;914;48.118;11.600;2023-07-08T00:15:10;7.30;;;5.75;;
1829;SDS011;914;48.118;11.600;2023-07-08T00:17:36;10.13;;;6.45;;
1829;SDS011;914;48.118;11.600;2023-07-08T00:20:17;7.55;;;6.07;;
1829;SDS011;914;48.118;11.600;2023-07-08T00:22:45;9.75;;;6.25;;
1829;SDS011;914;48.118;11.600;2023-07-08T00:25:17;8.93;;;6.80;;
1829;SDS011;914;48.118;11.600;2023-07-08T00:27:47;9.13;;;5.97;;
1829;SDS011;914;48.118;11.600;2023-07-08T00:30:18;7.80;;;6.78;;
1829;SDS011;914;48.118;11.600;2023-07-08T00:32:44;11.63;;;9.82;;
1829;SDS011;914;48.118;11.600;2023-07-08T00:35:10;10.57;;;7.97;;
1829;SDS011;914;48.118;11.600;2023-07-08T00:37:35;8.90;;;6.88;;
1829;SDS011;914;48.118;11.600;2023-07-08T00:40:02;7.90;;;7.07;;
1829;SDS011;914;48.118;11.600;2023-07-08T00:42:41;9.07;;;6.85;;
1829;SDS011;914;48.118;11.600;2023-07-08T00:45:43;9.25;;;7.00;;
1829;SDS011;914;48.118;11.600;2023-07-08T00:48:01;10.93;;;7.65;;
1829;SDS011;914;48.118;11.600;2023-07-08T00:50:42;9.68;;;7.40;;
1829;SDS011;914;48.118;11.600;2023-07-08T00:53:28;9.70;;;7.25;;
1829;SDS011;914;48.118;11.600;2023-07-08T00:55:59;9.63;;;7.50;;
1829;SDS011;914;48.118;11.600;2023-07-08T00:58:33;8.30;;;7.22;;
1829;SDS011;914;48.118;11.600;2023-07-08T01:01:03;9.82;;;7.60;;
1829;SDS011;914;48.118;11.600;2023-07-08T01:03:31;8.75;;;7.00;;
1829;SDS011;914;48.118;11.600;2023-07-08T01:06:01;8.15;;;7.18;;
1829;SDS011;914;48.118;11.600;2023-07-08T01:08:27;10.68;;;7.18;;
1829;SDS011;914;48.118;11.600;2023-07-08T01:10:58;8.98;;;7.80;;
1829;SDS011;914;48.118;11.600;2023-07-08T01:13:27;8.43;;;7.20;;
1829;SDS011;914;48.118;11.600;2023-07-08T01:15:56;10.13;;;7.32;;
1829;SDS011;914;48.118;11.600;2023-07-08T01:18:23;9.27;;;7.32;;
1829;SDS011;914;48.118;11.600;2023-07-08T01:20:50;8.77;;;7.25;;
1829;SDS011;914;48.118;11.600;2023-07-08T01:23:16;9.18;;;7.85;;
1829;SDS011;914;48.118;11.600;2023-07-08T01:25:43;13.13;;;7.85;;
1829;SDS011;914;48.118;11.600;2023-07-08T01:28:10;9.68;;;7.70;;
1829;SDS011;914;48.118;11.600;2023-07-08T01:30:36;10.57;;;7.78;;
1829;SDS011;914;48.118;11.600;2023-07-08T01:33:04;8.10;;;7.15;;
1829;SDS011;914;48.118;11.600;2023-07-08T01:35:36;8.50;;;7.60;;
1829;SDS011;914;48.118;11.600;2023-07-08T01:38:02;9.70;;;7.32;;
1829;SDS011;914;48.118;11.600;2023-07-08T01:40:32;8.40;;;7.43;;
1829;SDS011;914;48.118;11.600;2023-07-08T01:43:00;10.75;;;7.72;;
1829;SDS011;914;48.118;11.600;2023-07-08T01:45:28;10.48;;;7.85;;
1829;SDS011;914;48.118;11.600;2023-07-08T01:47:58;10.45;;;7.80;;
1829;SDS011;914;48.118;11.600;2023-07-08T01:50:27;10.10;;;7.57;;
1829;SDS011;914;48.118;11.600;2023-07-08T01:52:54;8.73;;;7.20;;
1829;SDS011;914;48.118;11.600;2023-07-08T01:55:24;9.50;;;7.63;;
1829;SDS011;914;48.118;11.600;2023-07-08T01:57:51;8.77;;;7.30;;
1829;SDS011;914;48.118;11.600;2023-07-08T02:00:18;8.68;;;7.47;;
1829;SDS011;914;48.118;11.600;2023-07-08T02:02:44;8.80;;;7.90;;
1829;SDS011;914;48.118;11.600;2023-07-08T02:05:10;10.23;;;7.65;;
1829;SDS011;914;48.118;11.600;2023-07-08T02:07:35;10.40;;;7.30;;
1829;SDS011;914;48.118;11.600;2023-07-08T02:10:01;10.85;;;6.90;;
1829;SDS011;914;48.118;11.600;2023-07-08T02:12:27;9.75;;;7.55;;
1829;SDS011;914;48.118;11.600;2023-07-08T02:14:52;9.35;;;7.85;;
1829;SDS011;914;48.118;11.600;2023-07-08T02:17:18;9.10;;;7.22;;
1829;SDS011;914;48.118;11.600;2023-07-08T02:19:43;8.60;;;7.20;;
1829;SDS011;914;48.118;11.600;2023-07-08T02:22:09;9.05;;;7.18;;
1829;SDS011;914;48.118;11.600;2023-07-08T02:24:35;11.85;;;7.85;;
1829;SDS011;914;48.118;11.600;2023-07-08T02:27:00;10.15;;;7.25;;
1829;SDS011;914;48.118;11.600;2023-07-08T02:29:26;8.52;;;7.53;;
1829;SDS011;914;48.118;11.600;2023-07-08T02:31:52;9.15;;;7.20;;
1829;SDS011;914;48.118;11.600;2023-07-08T02:34:18;11.50;;;8.02;;
1829;SDS011;914;48.118;11.600;2023-07-08T02:36:50;8.05;;;7.25;;
1829;SDS011;914;48.118;11.600;2023-07-08T02:39:16;11.75;;;7.90;;
1829;SDS011;914;48.118;11.600;2023-07-08T02:41:41;8.10;;;7.22;;
1829;SDS011;914;48.118;11.600;2023-07-08T02:44:07;9.57;;;7.30;;
1829;SDS011;914;48.118;11.600;2023-07-08T02:46:32;9.55;;;7.45;;
1829;SDS011;914;48.118;11.600;2023-07-08T02:48:58;10.65;;;7.72;;
1829;SDS011;914;48.118;11.600;2023-07-08T02:51:23;8.88;;;7.63;;
1829;SDS011;914;48.118;11.600;2023-07-08T02:53:49;9.20;;;7.35;;
1829;SDS011;914;48.118;11.600;2023-07-08T02:56:15;9.10;;;7.28;;
1829;SDS011;914;48.118;11.600;2023-07-08T02:58:41;8.20;;;7.35;;
1829;SDS011;914;48.118;11.600;2023-07-08T03:01:07;10.25;;;7.60;;
1829;SDS011;914;48.118;11.600;2023-07-08T03:03:34;9.98;;;7.53;;
1829;SDS011;914;48.118;11.600;2023-07-08T03:06:03;10.85;;;7.22;;
1829;SDS011;914;48.118;11.600;2023-07-08T03:08:32;9.27;;;7.43;;
1829;SDS011;914;48.118;11.600;2023-07-08T03:10:59;11.02;;;7.32;;
1829;SDS011;914;48.118;11.600;2023-07-08T03:13:27;11.85;;;8.05;;
1829;SDS011;914;48.118;11.600;2023-07-08T03:15:53;9.85;;;7.18;;
1829;SDS011;914;48.118;11.600;2023-07-08T03:18:20;8.20;;;6.97;;
1829;SDS011;914;48.118;11.600;2023-07-08T03:20:47;9.75;;;7.35;;
1829;SDS011;914;48.118;11.600;2023-07-08T03:23:13;7.50;;;6.75;;
1829;SDS011;914;48.118;11.600;2023-07-08T03:25:39;11.02;;;8.77;;
1829;SDS011;914;48.118;11.600;2023-07-08T03:28:05;7.95;;;6.88;;
1829;SDS011;914;48.118;11.600;2023-07-08T03:30:32;8.85;;;7.13;;
1829;SDS011;914;48.118;11.600;2023-07-08T03:32:59;8.45;;;7.18;;
1829;SDS011;914;48.118;11.600;2023-07-08T03:35:25;13.70;;;7.70;;
1829;SDS011;914;48.118;11.600;2023-07-08T03:37:51;10.88;;;7.45;;
1829;SDS011;914;48.118;11.600;2023-07-08T03:40:17;10.13;;;7.32;;
1829;SDS011;914;48.118;11.600;2023-07-08T03:42:43;10.50;;;7.65;;
1829;SDS011;914;48.118;11.600;2023-07-08T03:45:09;8.50;;;6.88;;
1829;SDS011;914;48.118;11.600;2023-07-08T03:47:35;10.18;;;7.20;;
1829;SDS011;914;48.118;11.600;2023-07-08T03:50:01;7.15;;;6.43;;
1829;SDS011;914;48.118;11.600;2023-07-08T03:52:27;8.02;;;6.97;;
1829;SDS011;914;48.118;11.600;2023-07-08T03:54:52;8.27;;;7.47;;
1829;SDS011;914;48.118;11.600;2023-07-08T03:57:18;8.13;;;7.20;;
1829;SDS011;914;48.118;11.600;2023-07-08T03:59:44;9.13;;;6.70;;
1829;SDS011;914;48.118;11.600;2023-07-08T04:02:13;8.57;;;7.13;;
1829;SDS011;914;48.118;11.600;2023-07-08T04:04:38;8.20;;;6.93;;
1829;SDS011;914;48.118;11.600;2023-07-08T04:07:04;7.60;;;6.65;;
1829;SDS011;914;48.118;11.600;2023-07-08T04:09:30;7.20;;;6.50;;
1829;SDS011;914;48.118;11.600;2023-07-08T04:11:56;7.53;;;6.70;;
1829;SDS011;914;48.118;11.600;2023-07-08T04:14:22;10.38;;;6.90;;
1829;SDS011;914;48.118;11.600;2023-07-08T04:16:52;7.68;;;6.88;;
1829;SDS011;914;48.118;11.600;2023-07-08T04:19:22;10.55;;;7.10;;
1829;SDS011;914;48.118;11.600;2023-07-08T04:21:49;8.57;;;6.85;;
1829;SDS011;914;48.118;11.600;2023-07-08T04:24:15;11.32;;;7.30;;
1829;SDS011;914;48.118;11.600;2023-07-08T04:26:42;9.30;;;7.10;;
1829;SDS011;914;48.118;11.600;2023-07-08T04:29:20;9.32;;;7.45;;
1829;SDS011;914;48.118;11.600;2023-07-08T04:31:47;7.63;;;6.90;;
1829;SDS011;914;48.118;11.600;2023-07-08T04:34:13;7.80;;;6.93;;
1829;SDS011;914;48.118;11.600;2023-07-08T04:36:40;8.60;;;7.70;;
1829;SDS011;914;48.118;11.600;2023-07-08T04:39:06;9.48;;;7.60;;
1829;SDS011;914;48.118;11.600;2023-07-08T04:41:33;9.10;;;7.70;;
1829;SDS011;914;48.118;11.600;2023-07-08T04:43:59;9.88;;;7.35;;
1829;SDS011;914;48.118;11.600;2023-07-08T04:46:30;8.05;;;7.00;;
1829;SDS011;914;48.118;11.600;2023-07-08T04:49:04;8.95;;;7.50;;
1829;SDS011;914;48.118;11.600;2023-07-08T04:51:31;9.00;;;7.63;;
1829;SDS011;914;48.118;11.600;2023-07-08T04:53:56;10.02;;;7.88;;
1829;SDS011;914;48.118;11.600;2023-07-08T04:56:22;15.52;;;8.30;;
1829;SDS011;914;48.118;11.600;2023-07-08T04:58:50;10.38;;;8.07;;
1829;SDS011;914;48.118;11.600;2023-07-08T05:01:16;8.07;;;7.18;;
1829;SDS011;914;48.118;11.600;2023-07-08T05:03:41;7.85;;;7.05;;
1829;SDS011;914;48.118;11.600;2023-07-08T05:06:07;9.60;;;7.47;;
1829;SDS011;914;48.118;11.600;2023-07-08T05:08:32;9.27;;;7.55;;
1829;SDS011;914;48.118;11.600;2023-07-08T05:10:58;10.07;;;6.88;;
1829;SDS011;914;48.118;11.600;2023-07-08T05:13:24;11.25;;;7.78;;
1829;SDS011;914;48.118;11.600;2023-07-08T05:15:50;8.93;;;7.10;;
1829;SDS011;914;48.118;11.600;2023-07-08T05:18:15;9.77;;;7.57;;
1829;SDS011;914;48.118;11.600;2023-07-08T05:20:41;9.77;;;7.53;;
1829;SDS011;914;48.118;11.600;2023-07-08T05:23:08;10.70;;;6.97;;
1829;SDS011;914;48.118;11.600;2023-07-08T05:25:34;8.40;;;7.50;;
1829;SDS011;914;48.118;11.600;2023-07-08T05:28:00;10.10;;;7.40;;
1829;SDS011;914;48.118;11.600;2023-07-08T05:30:26;9.32;;;6.80;;
1829;SDS011;914;48.118;11.600;2023-07-08T05:32:52;10.68;;;6.85;;
1829;SDS011;914;48.118;11.600;2023-07-08T05:35:18;8.30;;;7.10;;
1829;SDS011;914;48.118;11.600;2023-07-08T05:37:44;11.23;;;7.13;;
1829;SDS011;914;48.118;11.600;2023-07-08T05:40:12;10.90;;;8.10;;
1829;SDS011;914;48.118;11.600;2023-07-08T05:42:38;11.55;;;7.30;;
1829;SDS011;914;48.118;11.600;2023-07-08T05:45:04;10.15;;;7.82;;
1829;SDS011;914;48.118;11.600;2023-07-08T05:47:35;14.90;;;8.30;;
1829;SDS011;914;48.118;11.600;2023-07-08T05:50:01;10.10;;;8.35;;
1829;SDS011;914;48.118;11.600;2023-07-08T05:52:27;10.15;;;8.07;;
1829;SDS011;914;48.118;11.600;2023-07-08T05:54:53;11.00;;;7.90;;
1829;SDS011;914;48.118;11.600;2023-07-08T05:57:20;8.63;;;7.35;;
1829;SDS011;914;48.118;11.600;2023-07-08T05:59:46;8.23;;;6.75;;
1829;SDS011;914;48.118;11.600;2023-07-08T06:02:11;10.30;;;7.72;;
1829;SDS011;914;48.118;11.600;2023-07-08T06:04:38;16.30;;;8.35;;
1829;SDS011;914;48.118;11.600;2023-07-08T06:07:04;9.98;;;7.97;;
1829;SDS011;914;48.118;11.600;2023-07-08T06:09:30;11.13;;;7.72;;
1829;SDS011;914;48.118;11.600;2023-07-08T06:11:55;11.18;;;7.38;;
1829;SDS011;914;48.118;11.600;2023-07-08T06:14:21;9.95;;;7.93;;
1829;SDS011;914;48.118;11.600;2023-07-08T06:16:47;9.40;;;7.38;;
1829;SDS011;914;48.118;11.600;2023-07-08T06:19:12;10.85;;;7.43;;
1829;SDS011;914;48.118;11.600;2023-07-08T06:21:40;9.93;;;7.68;;
1829;SDS011;914;48.118;11.600;2023-07-08T06:24:06;8.90;;;7.63;;
1829;SDS011;914;48.118;11.600;2023-07-08T06:26:32;8.23;;;7.22;;
1829;SDS011;914;48.118;11.600;2023-07-08T06:28:58;10.45;;;7.68;;
1829;SDS011;914;48.118;11.600;2023-07-08T06:31:23;8.05;;;7.22;;
1829;SDS011;914;48.118;11.600;2023-07-08T06:33:49;10.38;;;7.78;;
1829;SDS011;914;48.118;11.600;2023-07-08T06:36:15;8.25;;;7.28;;
1829;SDS011;914;48.118;11.600;2023-07-08T06:38:40;9.10;;;7.75;;
1829;SDS011;914;48.118;11.600;2023-07-08T06:41:06;8.52;;;7.63;;
1829;SDS011;914;48.118;11.600;2023-07-08T06:43:32;10.15;;;7.72;;
1829;SDS011;914;48.118;11.600;2023-07-08T06:45:58;10.85;;;7.60;;
1829;SDS011;914;48.118;11.600;2023-07-08T06:48:23;10.18;;;7.45;;
1829;SDS011;914;48.118;11.600;2023-07-08T06:50:50;9.00;;;6.78;;
1829;SDS011;914;48.118;11.600;2023-07-08T06:53:16;7.80;;;7.00;;
1829;SDS011;914;48.118;11.600;2023-07-08T06:55:43;9.70;;;8.50;;
1829;SDS011;914;48.118;11.600;2023-07-08T06:58:10;9.10;;;7.55;;
1829;SDS011;914;48.118;11.600;2023-07-08T07:00:35;9.00;;;7.30;;
1829;SDS011;914;48.118;11.600;2023-07-08T07:03:01;10.32;;;7.80;;
1829;SDS011;914;48.118;11.600;2023-07-08T07:05:26;8.90;;;7.40;;
1829;SDS011;914;48.118;11.600;2023-07-08T07:07:52;9.52;;;7.65;;
1829;SDS011;914;48.118;11.600;2023-07-08T07:10:18;8.52;;;7.40;;
1829;SDS011;914;48.118;11.600;2023-07-08T07:12:45;9.25;;;6.95;;
1829;SDS011;914;48.118;11.600;2023-07-08T07:15:10;10.45;;;7.35;;
1829;SDS011;914;48.118;11.600;2023-07-08T07:17:36;11.70;;;7.22;;
1829;SDS011;914;48.118;11.600;2023-07-08T07:20:02;8.52;;;6.72;;
1829;SDS011;914;48.118;11.600;2023-07-08T07:22:28;8.68;;;7.25;;
1829;SDS011;914;48.118;11.600;2023-07-08T07:24:54;10.07;;;7.13;;
1829;SDS011;914;48.118;11.600;2023-07-08T07:27:20;9.45;;;7.53;;
1829;SDS011;914;48.118;11.600;2023-07-08T07:29:46;9.60;;;7.25;;
1829;SDS011;914;48.118;11.600;2023-07-08T07:32:14;8.20;;;7.30;;
1829;SDS011;914;48.118;11.600;2023-07-08T07:34:40;8.35;;;6.97;;
1829;SDS011;914;48.118;11.600;2023-07-08T07:37:10;9.05;;;7.03;;
1829;SDS011;914;48.118;11.600;2023-07-08T07:39:37;8.90;;;7.45;;
1829;SDS011;914;48.118;11.600;2023-07-08T07:42:03;8.95;;;7.13;;
1829;SDS011;914;48.118;11.600;2023-07-08T07:44:29;9.20;;;7.65;;
1829;SDS011;914;48.118;11.600;2023-07-08T07:46:54;8.57;;;6.72;;
1829;SDS011;914;48.118;11.600;2023-07-08T07:49:20;10.15;;;7.53;;
1829;SDS011;914;48.118;11.600;2023-07-08T07:51:46;9.57;;;7.60;;
1829;SDS011;914;48.118;11.600;2023-07-08T07:54:13;10.57;;;8.07;;
1829;SDS011;914;48.118;11.600;2023-07-08T07:56:39;12.75;;;7.68;;
1829;SDS011;914;48.118;11.600;2023-07-08T07:59:04;9.05;;;7.43;;
1829;SDS011;914;48.118;11.600;2023-07-08T08:01:30;9.30;;;6.78;;
1829;SDS011;914;48.118;11.600;2023-07-08T08:03:56;13.52;;;7.47;;
1829;SDS011;914;48.118;11.600;2023-07-08T08:06:21;11.02;;;7.68;;
1829;SDS011;914;48.118;11.600;2023-07-08T08:08:47;9.15;;;7.78;;
1829;SDS011;914;48.118;11.600;2023-07-08T08:11:14;10.85;;;7.80;;
1829;SDS011;914;48.118;11.600;2023-07-08T08:13:40;8.43;;;7.63;;
1829;SDS011;914;48.118;11.600;2023-07-08T08:16:06;8.52;;;7.63;;
1829;SDS011;914;48.118;11.600;2023-07-08T08:18:32;9.35;;;7.80;;
1829;SDS011;914;48.118;11.600;2023-07-08T08:20:57;10.45;;;7.90;;
1829;SDS011;914;48.118;11.600;2023-07-08T08:23:23;10.40;;;7.13;;
1829;SDS011;914;48.118;11.600;2023-07-08T08:25:50;11.77;;;7.55;;
1829;SDS011;914;48.118;11.600;2023-07-08T08:28:16;9.23;;;7.45;;
1829;SDS011;914;48.118;11.600;2023-07-08T08:30:41;9.13;;;7.20;;
1829;SDS011;914;48.118;11.600;2023-07-08T08:33:11;9.75;;;7.75;;
1829;SDS011;914;48.118;11.600;2023-07-08T08:35:37;8.55;;;7.50;;
1829;SDS011;914;48.118;11.600;2023-07-08T08:38:03;9.05;;;7.78;;
1829;SDS011;914;48.118;11.600;2023-07-08T08:40:29;10.98;;;7.90;;
1829;SDS011;914;48.118;11.600;2023-07-08T08:45:40;8.48;;;7.47;;
1829;SDS011;914;48.118;11.600;2023-07-08T08:48:31;8.77;;;7.45;;
1829;SDS011;914;48.118;11.600;2023-07-08T08:51:06;12.00;;;8.25;;
1829;SDS011;914;48.118;11.600;2023-07-08T08:53:36;9.32;;;7.70;;
1829;SDS011;914;48.118;11.600;2023-07-08T08:56:09;9.00;;;7.30;;
1829;SDS011;914;48.118;11.600;2023-07-08T09:01:27;13.05;;;7.97;;
1829;SDS011;914;48.118;11.600;2023-07-08T09:03:57;10.68;;;7.45;;
1829;SDS011;914;48.118;11.600;2023-07-08T09:06:31;8.65;;;7.20;;
1829;SDS011;914;48.118;11.600;2023-07-08T09:09:03;8.73;;;7.68;;
1829;SDS011;914;48.118;11.600;2023-07-08T09:11:47;8.20;;;6.80;;
1829;SDS011;914;48.118;11.600;2023-07-08T09:14:25;9.98;;;7.40;;
1829;SDS011;914;48.118;11.600;2023-07-08T09:19:26;8.43;;;7.03;;
1829;SDS011;914;48.118;11.600;2023-07-08T09:27:31;8.85;;;6.22;;
1829;SDS011;914;48.118;11.600;2023-07-08T09:29:56;10.95;;;6.75;;
1829;SDS011;914;48.118;11.600;2023-07-08T09:32:24;7.70;;;6.90;;
1829;SDS011;914;48.118;11.600;2023-07-08T09:34:53;10.35;;;7.03;;
1829;SDS011;914;48.118;11.600;2023-07-08T09:39:54;8.48;;;6.85;;
1829;SDS011;914;48.118;11.600;2023-07-08T09:42:21;8.63;;;6.93;;
1829;SDS011;914;48.118;11.600;2023-07-08T09:44:49;10.40;;;6.70;;
1829;SDS011;914;48.118;11.600;2023-07-08T09:47:22;8.77;;;6.88;;
1829;SDS011;914;48.118;11.600;2023-07-08T09:49:50;9.10;;;6.43;;
1829;SDS011;914;48.118;11.600;2023-07-08T09:52:17;9.18;;;6.95;;
1829;SDS011;914;48.118;11.600;2023-07-08T09:54:44;7.65;;;6.72;;
1829;SDS011;914;48.118;11.600;2023-07-08T09:59:52;8.32;;;6.45;;
1829;SDS011;914;48.118;11.600;2023-07-08T10:02:26;6.68;;;6.05;;
1829;SDS011;914;48.118;11.600;2023-07-08T10:04:59;11.00;;;6.65;;
1829;SDS011;914;48.118;11.600;2023-07-08T10:07:30;8.43;;;6.60;;
1829;SDS011;914;48.118;11.600;2023-07-08T10:09:57;9.23;;;6.03;;
1829;SDS011;914;48.118;11.600;2023-07-08T10:12:27;8.63;;;6.47;;
1829;SDS011;914;48.118;11.600;2023-07-08T10:14:59;8.48;;;6.40;;
1829;SDS011;914;48.118;11.600;2023-07-08T10:17:28;12.95;;;6.63;;
1829;SDS011;914;48.118;11.600;2023-07-08T10:19:55;7.88;;;6.53;;
1829;SDS011;914;48.118;11.600;2023-07-08T10:22:38;6.68;;;5.95;;
1829;SDS011;914;48.118;11.600;2023-07-08T10:25:13;6.15;;;5.47;;
1829;SDS011;914;48.118;11.600;2023-07-08T10:30:41;7.80;;;5.60;;
1829;SDS011;914;48.118;11.600;2023-07-08T10:33:39;11.25;;;5.80;;
1829;SDS011;914;48.118;11.600;2023-07-08T10:38:55;8.98;;;5.40;;
1829;SDS011;914;48.118;11.600;2023-07-08T10:50:21;8.95;;;5.60;;
1829;SDS011;914;48.118;11.600;2023-07-08T10:53:20;6.75;;;5.05;;
1829;SDS011;914;48.118;11.600;2023-07-08T10:56:06;8.68;;;5.10;;
1829;SDS011;914;48.118;11.600;2023-07-08T11:07:29;8.07;;;5.60;;
1829;SDS011;914;48.118;11.600;2023-07-08T11:10:06;5.40;;;4.70;;
1829;SDS011;914;48.118;11.600;2023-07-08T11:12:42;5.25;;;4.75;;
1829;SDS011;914;48.118;11.600;2023-07-08T11:15:21;6.32;;;5.50;;
1829;SDS011;914;48.118;11.600;2023-07-08T11:20:28;7.60;;;6.05;;
1829;SDS011;914;48.118;11.600;2023-07-08T11:23:04;7.70;;;5.40;;
1829;SDS011;914;48.118;11.600;2023-07-08T11:25:38;6.63;;;5.80;;
1829;SDS011;914;48.118;11.600;2023-07-08T11:28:06;7.95;;;5.60;;
1829;SDS011;914;48.118;11.600;2023-07-08T11:30:39;7.47;;;5.38;;
1829;SDS011;914;48.118;11.600;2023-07-08T11:33:09;6.28;;;5.63;;
1829;SDS011;914;48.118;11.600;2023-07-08T11:35:43;7.38;;;5.65;;
1829;SDS011;914;48.118;11.600;2023-07-08T11:38:12;7.25;;;6.05;;
1829;SDS011;914;48.118;11.600;2023-07-08T11:41:23;8.35;;;6.13;;
1829;SDS011;914;48.118;11.600;2023-07-08T11:43:58;8.20;;;6.00;;
1829;SDS011;914;48.118;11.600;2023-07-08T11:46:29;6.47;;;5.88;;
1829;SDS011;914;48.118;11.600;2023-07-08T11:49:11;11.18;;;6.10;;
1829;SDS011;914;48.118;11.600;2023-07-08T11:51:41;7.93;;;6.43;;
1829;SDS011;914;48.118;11.600;2023-07-08T11:54:13;8.15;;;5.63;;
1829;SDS011;914;48.118;11.600;2023-07-08T11:56:59;9.10;;;5.78;;
1829;SDS011;914;48.118;11.600;2023-07-08T11:59:29;13.93;;;12.68;;
1829;SDS011;914;48.118;11.600;2023-07-08T12:02:04;10.35;;;5.60;;
1829;SDS011;914;48.118;11.600;2023-07-08T12:05:01;8.85;;;5.90;;
1829;SDS011;914;48.118;11.600;2023-07-08T12:07:48;10.25;;;6.80;;
1829;SDS011;914;48.118;11.600;2023-07-08T12:10:27;7.82;;;5.80;;
1829;SDS011;914;48.118;11.600;2023-07-08T12:12:58;7.53;;;6.10;;
1829;SDS011;914;48.118;11.600;2023-07-08T12:15:25;7.18;;;6.47;;
1829;SDS011;914;48.118;11.600;2023-07-08T12:17:55;8.88;;;5.72;;
1829;SDS011;914;48.118;11.600;2023-07-08T12:20:32;10.18;;;6.15;;
1829;SDS011;914;48.118;11.600;2023-07-08T12:22:59;6.47;;;5.15;;
1829;SDS011;914;48.118;11.600;2023-07-08T12:25:33;7.18;;;6.03;;
1829;SDS011;914;48.118;11.600;2023-07-08T12:28:02;6.82;;;6.07;;
1829;SDS011;914;48.118;11.600;2023-07-08T12:30:28;6.90;;;6.15;;
1829;SDS011;914;48.118;11.600;2023-07-08T12:32:56;6.93;;;6.20;;
1829;SDS011;914;48.118;11.600;2023-07-08T12:37:58;7.05;;;6.35;;
1829;SDS011;914;48.118;11.600;2023-07-08T12:40:26;8.15;;;6.32;;
1829;SDS011;914;48.118;11.600;2023-07-08T12:42:53;6.43;;;5.80;;
1829;SDS011;914;48.118;11.600;2023-07-08T12:45:20;6.53;;;5.28;;
1829;SDS011;914;48.118;11.600;2023-07-08T12:47:48;7.63;;;6.00;;
1829;SDS011;914;48.118;11.600;2023-07-08T12:50:14;7.72;;;6.07;;
1829;SDS011;914;48.118;11.600;2023-07-08T12:52:42;6.18;;;5.57;;
1829;SDS011;914;48.118;11.600;2023-07-08T12:55:10;6.85;;;6.15;;
1829;SDS011;914;48.118;11.600;2023-07-08T12:57:37;6.55;;;5.95;;
1829;SDS011;914;48.118;11.600;2023-07-08T13:00:10;6.93;;;6.07;;
1829;SDS011;914;48.118;11.600;2023-07-08T13:02:39;8.55;;;6.50;;
1829;SDS011;914;48.118;11.600;2023-07-08T13:05:05;7.38;;;5.50;;
1829;SDS011;914;48.118;11.600;2023-07-08T13:07:38;9.68;;;5.60;;
1829;SDS011;914;48.118;11.600;2023-07-08T13:10:07;7.38;;;5.47;;
1829;SDS011;914;48.118;11.600;2023-07-08T13:12:41;6.13;;;5.53;;
1829;SDS011;914;48.118;11.600;2023-07-08T13:15:13;7.43;;;5.95;;
1829;SDS011;914;48.118;11.600;2023-07-08T13:17:45;5.60;;;5.10;;
1829;SDS011;914;48.118;11.600;2023-07-08T13:20:14;6.50;;;5.90;;
1829;SDS011;914;48.118;11.600;2023-07-08T13:22:41;7.57;;;5.72;;
1829;SDS011;914;48.118;11.600;2023-07-08T13:25:16;10.15;;;5.90;;
1829;SDS011;914;48.118;11.600;2023-07-08T13:27:53;7.03;;;5.22;;
1829;SDS011;914;48.118;11.600;2023-07-08T13:30:24;6.38;;;5.57;;
1829;SDS011;914;48.118;11.600;2023-07-08T13:32:53;6.50;;;5.40;;
1829;SDS011;914;48.118;11.600;2023-07-08T13:35:24;6.68;;;5.00;;
1829;SDS011;914;48.118;11.600;2023-07-08T13:37:52;5.20;;;4.70;;
1829;SDS011;914;48.118;11.600;2023-07-08T13:40:20;6.50;;;5.90;;
1829;SDS011;914;48.118;11.600;2023-07-08T13:42:46;6.03;;;5.53;;
1829;SDS011;914;48.118;11.600;2023-07-08T13:45:17;6.03;;;5.47;;
1829;SDS011;914;48.118;11.600;2023-07-08T13:50:41;6.55;;;5.50;;
1829;SDS011;914;48.118;11.600;2023-07-08T13:53:16;5.95;;;5.35;;
1829;SDS011;914;48.118;11.600;2023-07-08T13:55:47;5.75;;;5.25;;
1829;SDS011;914;48.118;11.600;2023-07-08T13:58:16;6.10;;;5.50;;
1829;SDS011;914;48.118;11.600;2023-07-08T14:00:43;7.13;;;5.13;;
1829;SDS011;914;48.118;11.600;2023-07-08T14:03:10;7.60;;;5.40;;
1829;SDS011;914;48.118;11.600;2023-07-08T14:05:37;5.55;;;4.97;;
1829;SDS011;914;48.118;11.600;2023-07-08T14:08:13;8.13;;;5.70;;
1829;SDS011;914;48.118;11.600;2023-07-08T14:10:40;9.70;;;5.47;;
1829;SDS011;914;48.118;11.600;2023-07-08T14:13:06;6.43;;;5.57;;
1829;SDS011;914;48.118;11.600;2023-07-08T14:15:32;6.10;;;5.50;;
1829;SDS011;914;48.118;11.600;2023-07-08T14:17:59;7.25;;;5.40;;
1829;SDS011;914;48.118;11.600;2023-07-08T14:20:26;5.80;;;5.25;;
1829;SDS011;914;48.118;11.600;2023-07-08T14:22:54;9.48;;;5.95;;
1829;SDS011;914;48.118;11.600;2023-07-08T14:25:20;10.15;;;6.45;;
1829;SDS011;914;48.118;11.600;2023-07-08T14:27:48;10.30;;;5.55;;
1829;SDS011;914;48.118;11.600;2023-07-08T14:30:14;6.50;;;5.80;;
1829;SDS011;914;48.118;11.600;2023-07-08T14:32:40;7.43;;;5.78;;
1829;SDS011;914;48.118;11.600;2023-07-08T14:37:52;8.23;;;5.70;;
1829;SDS011;914;48.118;11.600;2023-07-08T14:42:44;7.03;;;5.35;;
1829;SDS011;914;48.118;11.600;2023-07-08T14:45:10;8.05;;;5.80;;
1829;SDS011;914;48.118;11.600;2023-07-08T14:47:36;6.10;;;5.60;;
1829;SDS011;914;48.118;11.600;2023-07-08T14:50:09;9.00;;;5.80;;
1829;SDS011;914;48.118;11.600;2023-07-08T14:52:38;5.97;;;5.10;;
1829;SDS011;914;48.118;11.600;2023-07-08T14:55:03;9.75;;;5.78;;
1829;SDS011;914;48.118;11.600;2023-07-08T14:57:30;6.32;;;5.72;;
1829;SDS011;914;48.118;11.600;2023-07-08T15:00:04;11.55;;;5.65;;
1829;SDS011;914;48.118;11.600;2023-07-08T15:02:30;10.23;;;5.70;;
1829;SDS011;914;48.118;11.600;2023-07-08T15:04:59;6.60;;;5.30;;
1829;SDS011;914;48.118;11.600;2023-07-08T15:07:25;6.15;;;5.55;;
1829;SDS011;914;48.118;11.600;2023-07-08T15:09:50;7.88;;;5.97;;
1829;SDS011;914;48.118;11.600;2023-07-08T15:12:16;6.88;;;5.25;;
1829;SDS011;914;48.118;11.600;2023-07-08T15:14:42;5.93;;;5.22;;
1829;SDS011;914;48.118;11.600;2023-07-08T15:17:12;6.03;;;5.00;;
1829;SDS011;914;48.118;11.600;2023-07-08T15:19:42;6.03;;;5.43;;
1829;SDS011;914;48.118;11.600;2023-07-08T15:22:08;7.13;;;5.05;;
1829;SDS011;914;48.118;11.600;2023-07-08T15:24:34;8.38;;;5.28;;
1829;SDS011;914;48.118;11.600;2023-07-08T15:27:00;6.22;;;5.10;;
1829;SDS011;914;48.118;11.600;2023-07-08T15:29:28;7.90;;;5.70;;
1829;SDS011;914;48.118;11.600;2023-07-08T15:31:55;6.25;;;5.40;;
1829;SDS011;914;48.118;11.600;2023-07-08T15:34:21;9.15;;;5.53;;
1829;SDS011;914;48.118;11.600;2023-07-08T15:36:47;5.20;;;4.68;;
1829;SDS011;914;48.118;11.600;2023-07-08T15:39:14;7.57;;;4.90;;
1829;SDS011;914;48.118;11.600;2023-07-08T15:41:40;8.40;;;4.90;;
1829;SDS011;914;48.118;11.600;2023-07-08T15:44:11;6.97;;;5.03;;
1829;SDS011;914;48.118;11.600;2023-07-08T15:46:39;7.35;;;4.32;;
1829;SDS011;914;48.118;11.600;2023-07-08T15:51:47;4.68;;;4.28;;
1829;SDS011;914;48.118;11.600;2023-07-08T15:54:13;6.10;;;4.40;;
1829;SDS011;914;48.118;11.600;2023-07-08T15:56:39;5.45;;;4.43;;
1829;SDS011;914;48.118;11.600;2023-07-08T15:59:09;6.57;;;5.03;;
1829;SDS011;914;48.118;11.600;2023-07-08T16:01:39;8.20;;;4.97;;
1829;SDS011;914;48.118;11.600;2023-07-08T16:04:05;6.30;;;4.03;;
1829;SDS011;914;48.118;11.600;2023-07-08T16:06:43;5.65;;;4.13;;
1829;SDS011;914;48.118;11.600;2023-07-08T16:09:09;5.60;;;4.28;;
1829;SDS011;914;48.118;11.600;2023-07-08T16:11:35;6.30;;;4.43;;
1829;SDS011;914;48.118;11.600;2023-07-08T16:14:00;7.97;;;4.20;;
1829;SDS011;914;48.118;11.600;2023-07-08T16:16:27;4.68;;;3.95;;
1829;SDS011;914;48.118;11.600;2023-07-08T16:18:53;6.10;;;4.47;;